Terminal Aerodrome Forecast
Issued by NWS

Home | Current Version | Previous Version | Text Only | Print | Product List | Glossary On
Versions: 1 2 3 4 5 6 7 8 9 10 11 12 13 14 15 16 17 18 19 20 21 22 23
000
FTAK31 PANC 161126
TAFADU
TAF
PADU 161126Z 1612/1712 21006KT P6SM VCSH BKN024 OVC030
      TEMPO 1612/1614 SCT024 OVC110
     FM161400 18007KT 6SM -SHRA FEW015 OVC025=

USA.gov is the U.S. government's official web portal to all federal, state and local government web resources and services.